Time;durP1;ratioP1;P1;durP2;ratioP2;P2;SDS_P1;SDS_P2;PMS_P1;PMS_P2;Temp;Humidity;BMP_temperature;BMP_pressure;BME280_temperature;BME280_humidity;BME280_pressure;Samples;Min_cycle;Max_cycle;Signal;HPM_P1;HPM_P2
2023/04/11 07:55:36;;;;;;;30.50;18.40;;;12.20;99.90;;;;;;12827335;23;20140;-95
2023/04/11 08:00:40;;;;;;;38.87;24.70;;;12.50;99.90;;;;;;12804802;23;20160;-95
2023/04/11 08:06:30;;;;;;;36.17;22.53;;;12.70;99.90;;;;;;12804859;23;20171;-96
2023/04/11 08:11:33;;;;;;;35.67;22.33;;;;;;;;;;12783472;23;20664;-95
2023/04/11 08:22:04;;;;;;;27.27;19.33;;;13.10;99.90;;;;;;12752567;23;20238;-96
2023/04/11 08:27:10;;;;;;;34.90;24.73;;;13.20;99.90;;;;;;12800916;23;20210;-96
2023/04/11 08:32:13;;;;;;;24.57;16.67;;;13.30;99.90;;;;;;12822389;23;20246;-96
2023/04/11 08:37:16;;;;;;;31.87;19.17;;;13.50;99.90;;;;;;12827292;23;20211;-96
2023/04/11 08:42:29;;;;;;;40.03;25.50;;;13.60;99.90;;;;;;12820360;23;20176;-96
2023/04/11 08:47:34;;;;;;;15.90;10.83;;;13.60;99.90;;;;;;12867372;23;20164;-93
2023/04/11 08:52:43;;;;;;;35.00;21.23;;;13.60;99.90;;;;;;12813728;23;20175;-96
2023/04/11 08:57:49;;;;;;;19.47;13.00;;;13.70;99.90;;;;;;12808817;23;20176;-96
2023/04/11 09:02:54;;;;;;;34.07;22.00;;;13.80;99.90;;;;;;12809774;23;20207;-96
2023/04/11 09:08:00;;;;;;;36.37;22.57;;;13.80;99.90;;;;;;12792913;23;20172;-95
2023/04/11 09:13:25;;;;;;;26.10;16.17;;;13.70;99.90;;;;;;12796994;23;20222;-93
2023/04/11 09:18:38;;;;;;;29.83;21.27;;;13.70;99.90;;;;;;12789108;23;20183;-91
2023/04/11 09:23:41;;;;;;;26.80;16.77;;;13.80;99.90;;;;;;12807643;23;20203;-96
2023/04/11 09:28:51;;;;;;;29.83;20.37;;;13.90;99.90;;;;;;12788679;23;20183;-92
2023/04/11 09:33:58;;;;;;;21.90;14.83;;;14.00;99.90;;;;;;12787806;23;20222;-92
2023/04/11 09:39:18;;;;;;;34.87;21.10;;;14.00;99.90;;;;;;12806987;23;20171;-94
2023/04/11 09:44:37;;;;;;;19.13;13.53;;;14.10;99.90;;;;;;12793093;23;20167;-92
2023/04/11 09:49:41;;;;;;;19.87;13.73;;;14.10;99.70;;;;;;12764730;23;20283;-93
2023/04/11 09:54:44;;;;;;;25.50;17.53;;;14.20;99.90;;;;;;12791661;23;20168;-93
2023/04/11 09:59:47;;;;;;;29.30;19.57;;;14.40;99.40;;;;;;12790017;23;20183;-93
2023/04/11 10:04:53;;;;;;;17.93;13.10;;;14.50;99.80;;;;;;12816304;23;20225;-96
2023/04/11 10:09:56;;;;;;;20.23;14.00;;;14.80;99.40;;;;;;12802184;23;20222;-96
2023/04/11 10:15:07;;;;;;;15.90;12.43;;;14.90;98.50;;;;;;12818231;23;20226;-96
2023/04/11 10:20:49;;;;;;;34.87;22.77;;;15.00;98.40;;;;;;12813679;23;20230;-96
2023/04/11 10:25:59;;;;;;;30.43;20.00;;;15.10;97.60;;;;;;12810371;23;20179;-96
2023/04/11 10:31:11;;;;;;;29.93;19.97;;;15.20;97.80;;;;;;12821074;23;20188;-96
2023/04/11 10:36:14;;;;;;;19.10;12.73;;;15.40;96.60;;;;;;12819870;23;20244;-93
2023/04/11 10:41:18;;;;;;;29.23;20.80;;;15.50;96.60;;;;;;12795304;23;20246;-94
2023/04/11 10:46:22;;;;;;;27.60;18.77;;;15.70;96.80;;;;;;12791648;23;20152;-96
2023/04/11 10:51:26;;;;;;;31.83;22.57;;;15.60;94.00;;;;;;12843705;23;20199;-96
2023/04/11 11:30:22;;;;;;;23.77;14.63;;;15.50;90.20;;;;;;12850701;22;20206;-94
2023/04/11 11:35:25;;;;;;;12.13;6.57;;;15.40;90.50;;;;;;12827626;23;20266;-95
2023/04/11 11:46:07;;;;;;;15.63;7.73;;;15.20;87.70;;;;;;12838470;23;20273;-96
2023/04/11 11:51:14;;;;;;;20.70;13.23;;;15.20;91.80;;;;;;12761771;23;20204;-96
2023/04/11 11:56:18;;;;;;;21.80;14.47;;;15.20;90.90;;;;;;12734944;23;20176;-95
2023/04/11 12:01:21;;;;;;;16.03;11.00;;;15.10;90.90;;;;;;12732662;23;20211;-95
2023/04/11 12:06:30;;;;;;;18.87;13.43;;;14.90;91.70;;;;;;12766864;23;20184;-96
2023/04/11 12:11:40;;;;;;;17.63;11.33;;;14.90;91.60;;;;;;12785392;23;20592;-96
2023/04/11 12:16:43;;;;;;;21.67;11.47;;;14.90;92.20;;;;;;12784080;23;20176;-96
2023/04/11 12:21:45;;;;;;;21.77;11.03;;;14.80;91.90;;;;;;12809249;23;20212;-96
2023/04/11 12:26:47;;;;;;;14.20;9.60;;;14.70;92.60;;;;;;12788741;23;20180;-96
2023/04/11 14:01:15;;;;;;;10.47;6.80;;;13.40;99.90;;;;;;12802728;22;20292;-96
2023/04/11 15:24:32;;;;;;;7.50;4.23;;;11.20;99.90;;;;;;12742920;22;20273;-85
2023/04/11 15:29:35;;;;;;;12.43;3.27;;;11.00;99.90;;;;;;12849337;23;20191;-85
2023/04/11 15:34:39;;;;;;;6.63;2.97;;;11.50;99.90;;;;;;12895547;23;20163;-85
2023/04/11 15:39:42;;;;;;;3.83;2.43;;;11.50;99.90;;;;;;12851833;23;20183;-85
2023/04/11 15:44:44;;;;;;;3.67;2.83;;;11.50;99.90;;;;;;12850511;23;20183;-85
2023/04/11 15:49:47;;;;;;;9.20;3.50;;;11.30;99.90;;;;;;12852556;23;20203;-85
2023/04/11 15:54:49;;;;;;;10.13;3.97;;;11.30;99.90;;;;;;12853631;23;20343;-85
2023/04/11 15:59:52;;;;;;;5.97;3.93;;;11.50;99.90;;;;;;12852712;23;20237;-86
2023/04/11 16:04:54;;;;;;;7.10;4.17;;;11.30;99.90;;;;;;12870848;23;20171;-86
2023/04/11 16:09:57;;;;;;;6.43;4.67;;;11.10;99.90;;;;;;12849364;23;20538;-86
2023/04/11 16:14:59;;;;;;;7.53;4.93;;;10.80;99.90;;;;;;12853970;23;20222;-87
2023/04/11 16:20:06;;;;;;;5.67;4.10;;;10.50;99.90;;;;;;12856213;23;20167;-87
2023/04/11 16:25:14;;;;;;;11.10;5.90;;;10.40;99.90;;;;;;12877273;23;20649;-87
2023/04/11 16:30:17;;;;;;;6.07;5.00;;;10.20;99.90;;;;;;12856753;23;20190;-87
2023/04/11 16:35:20;;;;;;;7.97;4.97;;;10.30;99.90;;;;;;12852899;23;20183;-88
2023/04/11 16:40:22;;;;;;;7.20;5.37;;;10.00;99.90;;;;;;12854784;23;20298;-87
2023/04/11 16:45:25;;;;;;;8.63;5.27;;;9.90;99.90;;;;;;12873939;23;20167;-87
2023/04/11 16:50:27;;;;;;;8.93;6.23;;;9.80;99.90;;;;;;12854774;23;20195;-87
2023/04/11 16:55:30;;;;;;;7.00;5.47;;;9.80;99.90;;;;;;12851919;23;20245;-86
2023/04/11 17:00:33;;;;;;;9.73;6.80;;;10.00;99.90;;;;;;12878581;23;20183;-88
2023/04/11 17:05:36;;;;;;;9.77;7.93;;;10.30;99.90;;;;;;12853298;23;20190;-87
2023/04/11 17:10:39;;;;;;;10.17;7.17;;;10.30;99.90;;;;;;12852843;23;20237;-87
2023/04/11 17:15:41;;;;;;;10.03;5.77;;;10.40;99.90;;;;;;12871740;23;20203;-87
2023/04/11 17:20:45;;;;;;;13.67;7.87;;;10.70;99.90;;;;;;12851016;23;20183;-87
2023/04/11 17:25:51;;;;;;;8.50;6.13;;;11.00;99.90;;;;;;12862752;23;20257;-86
2023/04/11 17:30:54;;;;;;;14.80;9.20;;;10.80;99.90;;;;;;12868982;23;20221;-87
2023/04/11 17:35:56;;;;;;;14.13;7.87;;;10.30;99.90;;;;;;12875588;23;20179;-87
2023/04/11 17:40:59;;;;;;;20.53;13.23;;;10.00;99.90;;;;;;12850509;23;20774;-86
2023/04/11 17:46:16;;;;;;;19.97;12.27;;;9.70;99.90;;;;;;12850227;23;20249;-86
2023/04/11 17:51:18;;;;;;;18.80;12.33;;;9.40;99.90;;;;;;12852772;23;20753;-87
2023/04/11 17:56:21;;;;;;;15.77;10.70;;;9.60;99.90;;;;;;12850936;23;20225;-87
2023/04/11 18:01:24;;;;;;;10.03;7.47;;;9.50;99.90;;;;;;12853324;23;20167;-87
2023/04/11 18:06:26;;;;;;;8.23;5.47;;;9.80;99.90;;;;;;12855942;23;20178;-86
2023/04/11 18:11:29;;;;;;;8.07;6.57;;;10.10;99.90;;;;;;12855561;23;20257;-86
2023/04/11 18:16:32;;;;;;;6.97;5.20;;;10.90;99.90;;;;;;12857295;23;20167;-86
2023/04/11 18:21:35;;;;;;;6.13;4.07;;;11.30;99.90;;;;;;12879680;23;20175;-86
2023/04/11 18:26:37;;;;;;;5.73;3.97;;;12.00;99.90;;;;;;12864724;23;20261;-86
2023/04/11 18:31:40;;;;;;;3.73;3.33;;;11.90;99.90;;;;;;12856913;23;20241;-87
2023/04/11 18:36:42;;;;;;;4.10;3.57;;;12.20;99.90;;;;;;12856149;23;20496;-87
2023/04/11 18:41:46;;;;;;;5.37;3.70;;;12.50;99.90;;;;;;12856940;23;20187;-87
2023/04/11 18:46:49;;;;;;;9.10;7.20;;;12.80;99.90;;;;;;12878647;23;20183;-87
2023/04/11 18:51:54;;;;;;;5.47;4.80;;;9.60;99.90;;;;;;12853281;23;20198;-88
2023/04/11 18:56:57;;;;;;;5.83;4.13;;;8.20;99.90;;;;;;12870094;23;20204;-88
2023/04/11 19:02:01;;;;;;;7.20;5.07;;;;;;;;;;12858449;23;20228;-88
2023/04/11 19:07:04;;;;;;;8.17;4.27;;;7.40;99.90;;;;;;12856369;23;20179;-88
2023/04/11 19:12:08;;;;;;;6.27;4.40;;;7.20;99.90;;;;;;12878602;23;20204;-88
2023/04/11 19:17:13;;;;;;;5.07;3.67;;;7.20;99.90;;;;;;12855124;23;20179;-88
2023/04/11 19:22:16;;;;;;;4.77;3.83;;;6.90;99.90;;;;;;12852956;23;20262;-87
2023/04/11 19:27:20;;;;;;;5.77;4.60;;;6.80;99.90;;;;;;12855084;23;20601;-88
2023/04/11 19:32:23;;;;;;;9.63;5.00;;;6.70;99.90;;;;;;12854593;23;20591;-87
2023/04/11 19:37:25;;;;;;;5.70;3.83;;;6.70;99.90;;;;;;12855384;23;20175;-86
2023/04/11 19:42:31;;;;;;;5.77;5.17;;;6.80;99.90;;;;;;12879077;23;20222;-86
2023/04/11 19:47:34;;;;;;;6.13;4.93;;;6.80;99.90;;;;;;12873432;23;20167;-87
2023/04/11 19:52:36;;;;;;;6.93;5.53;;;6.50;99.90;;;;;;12854220;23;20187;-87
2023/04/11 19:57:42;;;;;;;9.03;5.97;;;6.50;99.90;;;;;;12852319;23;20183;-86
2023/04/11 20:02:49;;;;;;;7.57;5.73;;;6.50;99.90;;;;;;12852610;23;20685;-87
2023/04/11 20:07:52;;;;;;;9.97;5.47;;;6.60;99.90;;;;;;12851750;23;20241;-87
2023/04/11 20:12:54;;;;;;;11.53;5.40;;;6.50;99.90;;;;;;12854041;23;20233;-87
2023/04/11 20:17:57;;;;;;;10.07;6.03;;;6.40;99.90;;;;;;12855109;23;20233;-87
2023/04/11 20:23:03;;;;;;;6.80;5.50;;;6.30;99.90;;;;;;12854344;23;20194;-87
2023/04/11 20:28:06;;;;;;;10.77;5.60;;;6.30;99.90;;;;;;12853043;23;20230;-87
2023/04/11 20:33:09;;;;;;;6.73;5.40;;;6.30;99.90;;;;;;12853029;23;20245;-88
2023/04/11 20:38:11;;;;;;;6.17;4.63;;;6.20;99.90;;;;;;12851948;23;20242;-88
2023/04/11 20:43:15;;;;;;;7.57;5.13;;;6.30;99.90;;;;;;12854053;23;20171;-88
2023/04/11 20:48:18;;;;;;;6.97;5.73;;;6.40;99.90;;;;;;12853300;23;20182;-88
2023/04/11 20:53:21;;;;;;;10.17;6.47;;;6.40;99.90;;;;;;12878443;23;20187;-89
2023/04/11 20:58:25;;;;;;;10.73;6.67;;;6.60;99.90;;;;;;12854276;23;20167;-90
2023/04/11 21:03:28;;;;;;;10.33;7.33;;;6.50;99.90;;;;;;12852039;23;20581;-89
2023/04/11 21:08:32;;;;;;;11.30;7.10;;;6.60;99.90;;;;;;12853062;23;20194;-88
2023/04/11 21:13:35;;;;;;;7.80;6.20;;;6.50;99.90;;;;;;12851323;23;20237;-88
2023/04/11 21:18:38;;;;;;;9.00;6.60;;;6.90;99.90;;;;;;12853641;23;20233;-89
2023/04/11 21:23:41;;;;;;;9.17;5.90;;;6.50;99.90;;;;;;12853810;23;20244;-88
2023/04/11 21:28:43;;;;;;;10.13;6.53;;;6.40;99.90;;;;;;12858556;23;20168;-88
2023/04/11 21:33:46;;;;;;;6.77;5.00;;;6.40;99.90;;;;;;12851367;23;20191;-88
2023/04/11 21:38:49;;;;;;;8.37;5.13;;;7.20;99.90;;;;;;12852242;23;20163;-88
2023/04/11 21:43:51;;;;;;;10.07;5.43;;;8.30;99.90;;;;;;12853602;23;20253;-88
2023/04/11 21:48:54;;;;;;;8.00;5.00;;;8.90;99.90;;;;;;12854185;23;20187;-88
2023/04/11 21:53:57;;;;;;;5.73;3.50;;;;;;;;;;12853661;23;20569;-88
2023/04/11 21:59:00;;;;;;;5.43;3.67;;;10.30;99.90;;;;;;12853523;23;20182;-88
2023/04/11 22:04:03;;;;;;;6.13;4.10;;;11.30;99.90;;;;;;12854109;23;20197;-88
2023/04/11 22:09:08;;;;;;;5.37;3.23;;;11.40;99.90;;;;;;12853801;23;20510;-88
2023/04/11 22:14:15;;;;;;;7.70;5.10;;;11.70;99.90;;;;;;12852842;23;20246;-88
2023/04/11 22:19:17;;;;;;;9.27;5.47;;;11.70;99.90;;;;;;12853325;23;20175;-88
2023/04/11 22:24:22;;;;;;;4.27;3.70;;;11.20;99.90;;;;;;12853420;23;20195;-88
2023/04/11 22:29:29;;;;;;;4.33;3.60;;;11.10;99.90;;;;;;12852216;23;20171;-88
2023/04/11 22:34:32;;;;;;;5.10;3.40;;;11.30;99.90;;;;;;12871482;23;20237;-88
2023/04/11 22:39:35;;;;;;;3.83;3.33;;;11.70;99.90;;;;;;12851669;23;20167;-88
2023/04/11 22:44:37;;;;;;;4.13;3.03;;;11.50;99.90;;;;;;12852897;23;20233;-88
2023/04/11 22:49:40;;;;;;;9.30;3.53;;;11.40;99.90;;;;;;12825768;23;20183;-88
2023/04/11 22:54:46;;;;;;;4.33;3.60;;;11.40;99.90;;;;;;12875708;23;20187;-89
2023/04/11 22:59:49;;;;;;;4.27;3.43;;;11.80;99.90;;;;;;12859118;23;20557;-89
2023/04/11 23:04:52;;;;;;;4.87;3.13;;;11.70;99.90;;;;;;12856053;23;20179;-88
2023/04/11 23:09:59;;;;;;;3.30;2.90;;;11.60;99.90;;;;;;12853362;23;20214;-88
2023/04/11 23:15:03;;;;;;;5.77;3.07;;;11.90;99.90;;;;;;12854134;23;20699;-88
2023/04/11 23:20:13;;;;;;;5.23;4.20;;;11.90;99.90;;;;;;12856265;23;20167;-88
2023/04/11 23:25:15;;;;;;;6.43;4.30;;;11.90;99.90;;;;;;12854606;23;20234;-88
2023/04/11 23:30:18;;;;;;;6.13;3.57;;;11.20;99.90;;;;;;12854439;23;20171;-88
2023/04/11 23:35:22;;;;;;;4.43;3.97;;;11.10;99.90;;;;;;12872853;23;20237;-88
2023/04/11 23:40:25;;;;;;;5.03;3.47;;;10.70;99.90;;;;;;12853567;23;20175;-88
2023/04/11 23:45:27;;;;;;;4.03;3.10;;;10.50;99.90;;;;;;12854629;23;20716;-88
2023/04/11 23:50:33;;;;;;;3.73;3.07;;;10.30;99.90;;;;;;12853498;23;20233;-88
2023/04/11 23:55:36;;;;;;;3.80;2.83;;;10.30;99.90;;;;;;12854016;23;20257;-87
